sensor_id;sensor_type;location;lat;lon;timestamp;pressure;altitude;pressure_sealevel;temperature;humidity
24280;BME280;12395;42.808;23.408;2022-08-06T00:00:45;94722.44;;;18.19;71.00
24280;BME280;12395;42.808;23.408;2022-08-06T00:03:10;94729.16;;;18.21;71.07
24280;BME280;12395;42.808;23.408;2022-08-06T00:05:35;94730.75;;;18.22;71.13
24280;BME280;12395;42.808;23.408;2022-08-06T00:08:02;94724.84;;;18.20;71.29
24280;BME280;12395;42.808;23.408;2022-08-06T00:10:28;94726.38;;;18.11;71.07
24280;BME280;12395;42.808;23.408;2022-08-06T00:12:54;94733.97;;;18.19;71.15
24280;BME280;12395;42.808;23.408;2022-08-06T00:15:19;94741.47;;;18.17;71.07
24280;BME280;12395;42.808;23.408;2022-08-06T00:17:45;94745.16;;;18.11;71.74
24280;BME280;12395;42.808;23.408;2022-08-06T00:20:12;94747.50;;;18.03;72.19
24280;BME280;12395;42.808;23.408;2022-08-06T00:22:38;94736.91;;;17.86;72.46
24280;BME280;12395;42.808;23.408;2022-08-06T00:25:04;94741.53;;;17.91;73.67
24280;BME280;12395;42.808;23.408;2022-08-06T00:27:30;94744.69;;;17.83;74.27
24280;BME280;12395;42.808;23.408;2022-08-06T00:29:55;94755.66;;;17.81;74.18
24280;BME280;12395;42.808;23.408;2022-08-06T00:32:21;94745.94;;;17.75;74.46
24280;BME280;12395;42.808;23.408;2022-08-06T00:34:46;94760.97;;;17.76;73.79
24280;BME280;12395;42.808;23.408;2022-08-06T00:37:11;94753.94;;;17.70;74.09
24280;BME280;12395;42.808;23.408;2022-08-06T00:39:37;94763.56;;;17.66;74.19
24280;BME280;12395;42.808;23.408;2022-08-06T00:42:03;94759.19;;;17.60;74.60
24280;BME280;12395;42.808;23.408;2022-08-06T00:44:28;94764.81;;;17.58;74.65
24280;BME280;12395;42.808;23.408;2022-08-06T00:46:54;94751.94;;;17.55;74.60
24280;BME280;12395;42.808;23.408;2022-08-06T00:49:19;94760.00;;;17.60;74.93
24280;BME280;12395;42.808;23.408;2022-08-06T00:51:45;94757.03;;;17.57;74.95
24280;BME280;12395;42.808;23.408;2022-08-06T00:54:10;94763.44;;;17.56;75.18
24280;BME280;12395;42.808;23.408;2022-08-06T00:56:35;94756.97;;;17.52;75.24
24280;BME280;12395;42.808;23.408;2022-08-06T00:59:02;94750.22;;;17.49;75.26
24280;BME280;12395;42.808;23.408;2022-08-06T01:01:28;94754.91;;;17.59;74.97
24280;BME280;12395;42.808;23.408;2022-08-06T01:03:54;94760.22;;;17.54;74.94
24280;BME280;12395;42.808;23.408;2022-08-06T01:06:20;94748.56;;;17.43;75.22
24280;BME280;12395;42.808;23.408;2022-08-06T01:08:45;94752.72;;;17.56;74.81
24280;BME280;12395;42.808;23.408;2022-08-06T01:11:11;94761.94;;;17.65;74.64
24280;BME280;12395;42.808;23.408;2022-08-06T01:13:37;94752.53;;;17.62;74.33
24280;BME280;12395;42.808;23.408;2022-08-06T01:16:20;94758.03;;;17.78;74.54
24280;BME280;12395;42.808;23.408;2022-08-06T01:25:01;94764.66;;;17.70;74.54
24280;BME280;12395;42.808;23.408;2022-08-06T01:27:42;94745.25;;;17.58;75.27
24280;BME280;12395;42.808;23.408;2022-08-06T01:30:13;94749.75;;;17.52;75.70
24280;BME280;12395;42.808;23.408;2022-08-06T01:32:45;94741.47;;;17.54;75.43
24280;BME280;12395;42.808;23.408;2022-08-06T01:35:19;94750.03;;;17.51;75.46
24280;BME280;12395;42.808;23.408;2022-08-06T01:40:43;94735.81;;;17.50;75.95
24280;BME280;12395;42.808;23.408;2022-08-06T01:43:13;94725.75;;;17.36;76.24
24280;BME280;12395;42.808;23.408;2022-08-06T01:45:40;94725.38;;;17.27;76.42
24280;BME280;12395;42.808;23.408;2022-08-06T01:48:12;94727.34;;;17.37;75.89
24280;BME280;12395;42.808;23.408;2022-08-06T01:50:41;94733.31;;;17.44;76.47
24280;BME280;12395;42.808;23.408;2022-08-06T01:53:11;94719.28;;;17.32;76.19
24280;BME280;12395;42.808;23.408;2022-08-06T01:55:40;94713.66;;;17.33;76.17
24280;BME280;12395;42.808;23.408;2022-08-06T01:58:07;94730.56;;;17.39;76.40
24280;BME280;12395;42.808;23.408;2022-08-06T02:00:37;94735.72;;;17.45;76.70
24280;BME280;12395;42.808;23.408;2022-08-06T02:03:09;94731.19;;;17.46;77.05
24280;BME280;12395;42.808;23.408;2022-08-06T02:05:37;94725.41;;;17.32;77.14
24280;BME280;12395;42.808;23.408;2022-08-06T02:08:04;94730.47;;;17.29;77.47
24280;BME280;12395;42.808;23.408;2022-08-06T02:10:32;94710.41;;;17.05;78.28
24280;BME280;12395;42.808;23.408;2022-08-06T02:13:02;94714.91;;;16.99;78.51
24280;BME280;12395;42.808;23.408;2022-08-06T02:15:30;94723.84;;;17.10;78.95
24280;BME280;12395;42.808;23.408;2022-08-06T02:18:00;94722.69;;;17.01;78.94
24280;BME280;12395;42.808;23.408;2022-08-06T02:20:38;94731.16;;;16.92;79.54
24280;BME280;12395;42.808;23.408;2022-08-06T02:23:13;94723.81;;;16.83;80.27
24280;BME280;12395;42.808;23.408;2022-08-06T02:25:42;94715.94;;;16.71;80.69
24280;BME280;12395;42.808;23.408;2022-08-06T02:28:09;94708.16;;;16.70;80.92
24280;BME280;12395;42.808;23.408;2022-08-06T02:30:38;94722.47;;;16.80;80.81
24280;BME280;12395;42.808;23.408;2022-08-06T02:33:06;94723.97;;;16.71;81.70
24280;BME280;12395;42.808;23.408;2022-08-06T02:35:37;94724.50;;;16.73;81.71
24280;BME280;12395;42.808;23.408;2022-08-06T02:38:11;94714.06;;;16.72;81.86
24280;BME280;12395;42.808;23.408;2022-08-06T02:40:43;94708.09;;;16.65;81.90
24280;BME280;12395;42.808;23.408;2022-08-06T02:43:16;94714.75;;;16.62;81.92
24280;BME280;12395;42.808;23.408;2022-08-06T02:45:49;94726.25;;;16.63;82.07
24280;BME280;12395;42.808;23.408;2022-08-06T02:48:52;94728.56;;;16.54;83.03
24280;BME280;12395;42.808;23.408;2022-08-06T02:51:34;94686.47;;;16.28;83.21
24280;BME280;12395;42.808;23.408;2022-08-06T02:54:17;94717.03;;;16.54;83.39
24280;BME280;12395;42.808;23.408;2022-08-06T02:56:45;94729.59;;;16.53;83.68
24280;BME280;12395;42.808;23.408;2022-08-06T02:59:13;94722.59;;;16.31;84.81
24280;BME280;12395;42.808;23.408;2022-08-06T03:01:50;94727.38;;;16.29;85.15
24280;BME280;12395;42.808;23.408;2022-08-06T03:04:18;94719.19;;;16.35;85.06
24280;BME280;12395;42.808;23.408;2022-08-06T03:06:47;94705.16;;;16.28;85.18
24280;BME280;12395;42.808;23.408;2022-08-06T03:09:15;94723.72;;;16.35;85.31
24280;BME280;12395;42.808;23.408;2022-08-06T03:11:44;94722.72;;;16.41;85.11
24280;BME280;12395;42.808;23.408;2022-08-06T03:14:12;94735.34;;;16.45;84.94
24280;BME280;12395;42.808;23.408;2022-08-06T03:16:39;94732.59;;;16.40;84.98
24280;BME280;12395;42.808;23.408;2022-08-06T03:19:08;94733.75;;;16.44;85.90
24280;BME280;12395;42.808;23.408;2022-08-06T03:21:34;94730.44;;;16.37;85.98
24280;BME280;12395;42.808;23.408;2022-08-06T03:24:01;94735.69;;;16.32;86.03
24280;BME280;12395;42.808;23.408;2022-08-06T03:26:29;94735.09;;;16.25;86.05
24280;BME280;12395;42.808;23.408;2022-08-06T03:28:58;94715.41;;;16.14;86.63
24280;BME280;12395;42.808;23.408;2022-08-06T03:31:25;94734.41;;;16.35;86.19
24280;BME280;12395;42.808;23.408;2022-08-06T03:33:52;94736.34;;;16.39;85.86
24280;BME280;12395;42.808;23.408;2022-08-06T03:36:19;94736.91;;;16.41;85.59
24280;BME280;12395;42.808;23.408;2022-08-06T03:38:49;94725.66;;;16.39;85.97
24280;BME280;12395;42.808;23.408;2022-08-06T03:41:16;94727.59;;;16.44;85.80
24280;BME280;12395;42.808;23.408;2022-08-06T03:43:42;94723.69;;;16.51;85.20
24280;BME280;12395;42.808;23.408;2022-08-06T03:46:08;94732.84;;;16.55;84.96
24280;BME280;12395;42.808;23.408;2022-08-06T03:48:39;94720.78;;;16.53;85.55
24280;BME280;12395;42.808;23.408;2022-08-06T03:51:12;94733.78;;;16.66;85.94
24280;BME280;12395;42.808;23.408;2022-08-06T03:53:40;94721.94;;;16.62;85.40
24280;BME280;12395;42.808;23.408;2022-08-06T03:56:07;94730.88;;;16.67;84.92
24280;BME280;12395;42.808;23.408;2022-08-06T03:58:37;94735.97;;;16.69;85.11
24280;BME280;12395;42.808;23.408;2022-08-06T04:01:06;94735.59;;;16.82;84.58
24280;BME280;12395;42.808;23.408;2022-08-06T04:03:34;94740.19;;;16.86;84.76
24280;BME280;12395;42.808;23.408;2022-08-06T04:06:00;94749.59;;;16.89;84.73
24280;BME280;12395;42.808;23.408;2022-08-06T04:08:27;94744.47;;;16.87;84.96
24280;BME280;12395;42.808;23.408;2022-08-06T04:10:52;94742.13;;;16.91;84.87
24280;BME280;12395;42.808;23.408;2022-08-06T04:13:21;94752.50;;;17.09;86.37
24280;BME280;12395;42.808;23.408;2022-08-06T04:15:48;94755.53;;;17.18;84.84
24280;BME280;12395;42.808;23.408;2022-08-06T04:18:17;94764.94;;;17.20;84.36
24280;BME280;12395;42.808;23.408;2022-08-06T04:20:45;94767.88;;;17.19;84.48
24280;BME280;12395;42.808;23.408;2022-08-06T04:23:11;94769.78;;;17.23;84.59
24280;BME280;12395;42.808;23.408;2022-08-06T04:25:45;94766.91;;;17.30;84.86
24280;BME280;12395;42.808;23.408;2022-08-06T04:28:13;94767.09;;;17.45;86.90
24280;BME280;12395;42.808;23.408;2022-08-06T04:30:40;94770.38;;;17.52;87.60
24280;BME280;12395;42.808;23.408;2022-08-06T04:33:09;94780.41;;;17.66;84.90
24280;BME280;12395;42.808;23.408;2022-08-06T04:35:37;94779.78;;;17.81;85.37
24280;BME280;12395;42.808;23.408;2022-08-06T04:38:04;94781.72;;;17.91;86.44
24280;BME280;12395;42.808;23.408;2022-08-06T04:40:30;94758.88;;;17.83;87.74
24280;BME280;12395;42.808;23.408;2022-08-06T04:42:56;94785.84;;;18.03;88.89
24280;BME280;12395;42.808;23.408;2022-08-06T04:45:23;94768.94;;;17.98;89.06
24280;BME280;12395;42.808;23.408;2022-08-06T04:47:50;94770.06;;;18.07;89.01
24280;BME280;12395;42.808;23.408;2022-08-06T04:50:16;94773.09;;;18.15;89.40
24280;BME280;12395;42.808;23.408;2022-08-06T04:52:41;94782.34;;;18.34;89.68
24280;BME280;12395;42.808;23.408;2022-08-06T04:55:08;94785.59;;;18.41;88.36
24280;BME280;12395;42.808;23.408;2022-08-06T04:57:33;94777.09;;;18.50;88.84
24280;BME280;12395;42.808;23.408;2022-08-06T04:59:59;94791.94;;;18.62;86.77
24280;BME280;12395;42.808;23.408;2022-08-06T05:02:24;94793.34;;;18.80;87.18
24280;BME280;12395;42.808;23.408;2022-08-06T05:04:50;94782.66;;;18.85;87.38
24280;BME280;12395;42.808;23.408;2022-08-06T05:07:22;94798.56;;;19.01;83.55
24280;BME280;12395;42.808;23.408;2022-08-06T05:09:49;94779.00;;;19.06;84.52
24280;BME280;12395;42.808;23.408;2022-08-06T05:15:10;94795.53;;;19.40;81.39
24280;BME280;12395;42.808;23.408;2022-08-06T05:17:42;94800.13;;;19.49;81.17
24280;BME280;12395;42.808;23.408;2022-08-06T05:20:15;94783.50;;;19.52;81.38
24280;BME280;12395;42.808;23.408;2022-08-06T05:22:43;94777.56;;;19.55;80.60
24280;BME280;12395;42.808;23.408;2022-08-06T05:25:09;94794.81;;;19.74;79.41
24280;BME280;12395;42.808;23.408;2022-08-06T05:27:35;94789.47;;;19.84;79.64
24280;BME280;12395;42.808;23.408;2022-08-06T05:30:02;94791.34;;;19.94;77.82
24280;BME280;12395;42.808;23.408;2022-08-06T05:32:28;94785.97;;;19.99;75.80
24280;BME280;12395;42.808;23.408;2022-08-06T05:34:53;94793.78;;;20.06;78.47
24280;BME280;12395;42.808;23.408;2022-08-06T05:37:19;94798.63;;;20.19;75.21
24280;BME280;12395;42.808;23.408;2022-08-06T05:39:44;94804.03;;;20.29;73.94
24280;BME280;12395;42.808;23.408;2022-08-06T05:42:10;94796.22;;;20.37;73.88
24280;BME280;12395;42.808;23.408;2022-08-06T05:44:35;94795.94;;;20.39;73.20
24280;BME280;12395;42.808;23.408;2022-08-06T05:47:06;94791.38;;;20.44;72.20
24280;BME280;12395;42.808;23.408;2022-08-06T05:49:44;94809.38;;;20.59;71.49
24280;BME280;12395;42.808;23.408;2022-08-06T05:52:22;94810.19;;;20.59;72.23
24280;BME280;12395;42.808;23.408;2022-08-06T05:57:50;94804.25;;;20.62;72.23
24280;BME280;12395;42.808;23.408;2022-08-06T06:00:18;94815.28;;;20.71;71.76
24280;BME280;12395;42.808;23.408;2022-08-06T06:02:47;94803.69;;;20.75;72.32
24280;BME280;12395;42.808;23.408;2022-08-06T06:05:14;94807.47;;;20.85;71.16
24280;BME280;12395;42.808;23.408;2022-08-06T06:07:40;94801.78;;;20.91;72.21
24280;BME280;12395;42.808;23.408;2022-08-06T06:10:07;94772.41;;;20.90;71.65
24280;BME280;12395;42.808;23.408;2022-08-06T06:12:33;94781.25;;;21.00;71.01
24280;BME280;12395;42.808;23.408;2022-08-06T06:15:03;94776.44;;;21.07;70.50
24280;BME280;12395;42.808;23.408;2022-08-06T06:22:45;94804.31;;;21.46;68.57
24280;BME280;12395;42.808;23.408;2022-08-06T06:25:23;94798.88;;;21.51;68.13
24280;BME280;12395;42.808;23.408;2022-08-06T06:28:05;94797.78;;;21.52;67.48
24280;BME280;12395;42.808;23.408;2022-08-06T06:30:42;94793.44;;;21.62;66.95
24280;BME280;12395;42.808;23.408;2022-08-06T06:33:22;94795.56;;;21.65;67.84
24280;BME280;12395;42.808;23.408;2022-08-06T06:36:02;94791.97;;;21.79;68.04
24280;BME280;12395;42.808;23.408;2022-08-06T06:41:26;94788.38;;;21.99;64.33
24280;BME280;12395;42.808;23.408;2022-08-06T06:44:23;94792.06;;;22.08;64.99
24280;BME280;12395;42.808;23.408;2022-08-06T06:47:04;94782.00;;;22.18;64.95
24280;BME280;12395;42.808;23.408;2022-08-06T06:49:37;94784.09;;;22.26;63.48
24280;BME280;12395;42.808;23.408;2022-08-06T06:52:38;94781.88;;;22.34;63.72
24280;BME280;12395;42.808;23.408;2022-08-06T06:55:08;94781.03;;;22.38;62.59
24280;BME280;12395;42.808;23.408;2022-08-06T06:57:38;94775.25;;;22.50;62.59
24280;BME280;12395;42.808;23.408;2022-08-06T07:00:06;94769.53;;;22.56;62.70
24280;BME280;12395;42.808;23.408;2022-08-06T07:02:35;94773.44;;;22.74;63.39
24280;BME280;12395;42.808;23.408;2022-08-06T07:05:03;94774.09;;;22.89;62.21
24280;BME280;12395;42.808;23.408;2022-08-06T07:07:35;94767.53;;;22.95;61.86
24280;BME280;12395;42.808;23.408;2022-08-06T07:10:04;94763.63;;;23.07;61.27
24280;BME280;12395;42.808;23.408;2022-08-06T07:12:32;94771.59;;;23.17;59.17
24280;BME280;12395;42.808;23.408;2022-08-06T07:14:58;94773.09;;;23.28;60.16
24280;BME280;12395;42.808;23.408;2022-08-06T07:17:25;94760.38;;;23.28;59.42
24280;BME280;12395;42.808;23.408;2022-08-06T07:19:54;94755.19;;;23.32;60.08
24280;BME280;12395;42.808;23.408;2022-08-06T07:22:22;94759.97;;;23.40;58.68
24280;BME280;12395;42.808;23.408;2022-08-06T07:24:51;94765.03;;;23.46;58.75
24280;BME280;12395;42.808;23.408;2022-08-06T07:27:18;94757.38;;;23.53;58.70
24280;BME280;12395;42.808;23.408;2022-08-06T07:29:44;94765.66;;;23.62;59.94
24280;BME280;12395;42.808;23.408;2022-08-06T07:32:10;94759.41;;;23.61;58.86
24280;BME280;12395;42.808;23.408;2022-08-06T07:34:36;94756.88;;;23.70;57.69
24280;BME280;12395;42.808;23.408;2022-08-06T07:37:03;94752.47;;;23.74;57.50
24280;BME280;12395;42.808;23.408;2022-08-06T07:39:33;94748.03;;;23.83;57.81
24280;BME280;12395;42.808;23.408;2022-08-06T07:42:02;94747.78;;;23.98;57.20
24280;BME280;12395;42.808;23.408;2022-08-06T07:44:39;94750.88;;;24.10;56.34
24280;BME280;12395;42.808;23.408;2022-08-06T07:47:07;94754.31;;;24.16;54.97
24280;BME280;12395;42.808;23.408;2022-08-06T07:49:36;94741.28;;;24.18;55.49
24280;BME280;12395;42.808;23.408;2022-08-06T07:52:04;94745.72;;;24.27;54.99
24280;BME280;12395;42.808;23.408;2022-08-06T07:54:30;94739.91;;;24.34;55.72
24280;BME280;12395;42.808;23.408;2022-08-06T07:56:57;94753.44;;;24.52;54.60
24280;BME280;12395;42.808;23.408;2022-08-06T07:59:24;94747.81;;;24.63;53.90
24280;BME280;12395;42.808;23.408;2022-08-06T08:01:51;94742.03;;;24.69;53.80
24280;BME280;12395;42.808;23.408;2022-08-06T08:04:17;94741.03;;;24.79;54.50
24280;BME280;12395;42.808;23.408;2022-08-06T08:07:04;94731.50;;;24.81;54.73
24280;BME280;12395;42.808;23.408;2022-08-06T08:09:30;94745.88;;;25.09;56.28
24280;BME280;12395;42.808;23.408;2022-08-06T08:11:56;94742.78;;;25.29;54.94
24280;BME280;12395;42.808;23.408;2022-08-06T08:14:22;94735.44;;;25.43;54.82
24280;BME280;12395;42.808;23.408;2022-08-06T08:16:50;94726.59;;;25.51;54.48
24280;BME280;12395;42.808;23.408;2022-08-06T08:19:26;94740.22;;;25.73;54.03
24280;BME280;12395;42.808;23.408;2022-08-06T08:22:18;94743.19;;;25.85;52.67
24280;BME280;12395;42.808;23.408;2022-08-06T08:24:45;94737.78;;;26.08;55.03
24280;BME280;12395;42.808;23.408;2022-08-06T08:27:11;94731.41;;;26.26;52.35
24280;BME280;12395;42.808;23.408;2022-08-06T08:29:38;94734.47;;;26.55;50.38
24280;BME280;12395;42.808;23.408;2022-08-06T08:32:04;94749.00;;;26.72;50.21
24280;BME280;12395;42.808;23.408;2022-08-06T08:34:30;94750.53;;;26.96;53.05
24280;BME280;12395;42.808;23.408;2022-08-06T08:36:56;94745.22;;;27.30;50.77
24280;BME280;12395;42.808;23.408;2022-08-06T08:39:21;94727.53;;;27.49;48.98
24280;BME280;12395;42.808;23.408;2022-08-06T08:41:51;94742.50;;;27.78;47.36
24280;BME280;12395;42.808;23.408;2022-08-06T08:44:22;94723.13;;;28.05;47.23
24280;BME280;12395;42.808;23.408;2022-08-06T08:46:49;94724.41;;;28.33;50.09
24280;BME280;12395;42.808;23.408;2022-08-06T08:49:30;94736.38;;;28.75;48.05
24280;BME280;12395;42.808;23.408;2022-08-06T08:51:58;94735.81;;;28.98;46.90
24280;BME280;12395;42.808;23.408;2022-08-06T08:54:27;94722.09;;;29.24;48.28
24280;BME280;12395;42.808;23.408;2022-08-06T08:56:54;94703.38;;;29.43;44.51
24280;BME280;12395;42.808;23.408;2022-08-06T08:59:20;94727.38;;;29.58;43.38
24280;BME280;12395;42.808;23.408;2022-08-06T09:01:46;94717.78;;;29.73;44.83
24280;BME280;12395;42.808;23.408;2022-08-06T09:04:13;94714.06;;;29.57;43.15
24280;BME280;12395;42.808;23.408;2022-08-06T09:06:39;94717.00;;;29.43;43.31
24280;BME280;12395;42.808;23.408;2022-08-06T09:09:05;94712.81;;;29.46;42.64
24280;BME280;12395;42.808;23.408;2022-08-06T09:11:32;94715.16;;;29.56;43.82
24280;BME280;12395;42.808;23.408;2022-08-06T09:14:07;94725.16;;;29.52;44.04
24280;BME280;12395;42.808;23.408;2022-08-06T09:16:34;94724.91;;;29.36;44.69
24280;BME280;12395;42.808;23.408;2022-08-06T09:19:02;94728.91;;;29.39;43.01
24280;BME280;12395;42.808;23.408;2022-08-06T09:21:29;94725.06;;;29.40;43.53
24280;BME280;12395;42.808;23.408;2022-08-06T09:23:55;94702.94;;;29.33;43.70
24280;BME280;12395;42.808;23.408;2022-08-06T09:26:21;94730.03;;;29.67;43.42
24280;BME280;12395;42.808;23.408;2022-08-06T09:28:46;94717.53;;;29.66;41.46
24280;BME280;12395;42.808;23.408;2022-08-06T09:31:17;94709.44;;;29.78;42.12
24280;BME280;12395;42.808;23.408;2022-08-06T09:34:01;94711.53;;;29.72;41.78
24280;BME280;12395;42.808;23.408;2022-08-06T09:36:27;94714.97;;;29.61;42.21
24280;BME280;12395;42.808;23.408;2022-08-06T09:38:58;94719.63;;;29.40;43.33
24280;BME280;12395;42.808;23.408;2022-08-06T09:41:28;94722.72;;;29.30;42.67
24280;BME280;12395;42.808;23.408;2022-08-06T09:43:55;94716.34;;;29.17;43.04
24280;BME280;12395;42.808;23.408;2022-08-06T09:46:45;94720.94;;;29.34;43.02
24280;BME280;12395;42.808;23.408;2022-08-06T09:49:12;94699.44;;;29.24;42.94
24280;BME280;12395;42.808;23.408;2022-08-06T09:51:39;94712.19;;;29.49;43.60
24280;BME280;12395;42.808;23.408;2022-08-06T09:54:08;94706.97;;;29.56;44.15
24280;BME280;12395;42.808;23.408;2022-08-06T09:56:36;94704.72;;;29.58;45.08
24280;BME280;12395;42.808;23.408;2022-08-06T09:59:06;94714.22;;;29.52;44.47
24280;BME280;12395;42.808;23.408;2022-08-06T10:01:42;94709.03;;;29.38;44.21
24280;BME280;12395;42.808;23.408;2022-08-06T10:04:24;94700.78;;;29.18;43.17
24280;BME280;12395;42.808;23.408;2022-08-06T10:06:55;94711.56;;;29.06;44.88
24280;BME280;12395;42.808;23.408;2022-08-06T10:09:21;94716.72;;;28.98;44.18
24280;BME280;12395;42.808;23.408;2022-08-06T10:11:46;94704.38;;;28.92;46.95
24280;BME280;12395;42.808;23.408;2022-08-06T10:14:25;94701.19;;;28.90;45.43
24280;BME280;12395;42.808;23.408;2022-08-06T10:19:35;94685.69;;;29.12;44.83
24280;BME280;12395;42.808;23.408;2022-08-06T10:24:45;94674.44;;;29.13;45.86
24280;BME280;12395;42.808;23.408;2022-08-06T10:27:19;94690.03;;;29.21;43.00
24280;BME280;12395;42.808;23.408;2022-08-06T10:29:58;94681.19;;;29.16;42.21
24280;BME280;12395;42.808;23.408;2022-08-06T10:32:45;94685.03;;;29.15;37.56
24280;BME280;12395;42.808;23.408;2022-08-06T10:35:15;94669.13;;;29.25;37.60
24280;BME280;12395;42.808;23.408;2022-08-06T10:37:42;94671.81;;;29.54;37.85
24280;BME280;12395;42.808;23.408;2022-08-06T10:40:11;94674.09;;;29.73;37.45
24280;BME280;12395;42.808;23.408;2022-08-06T10:42:39;94678.53;;;29.86;37.46
24280;BME280;12395;42.808;23.408;2022-08-06T10:45:05;94681.00;;;30.00;34.84
24280;BME280;12395;42.808;23.408;2022-08-06T10:47:33;94669.31;;;30.32;33.96
24280;BME280;12395;42.808;23.408;2022-08-06T10:50:00;94669.41;;;30.68;31.96
24280;BME280;12395;42.808;23.408;2022-08-06T10:52:27;94679.31;;;30.73;31.70
24280;BME280;12395;42.808;23.408;2022-08-06T10:54:54;94684.91;;;30.76;31.60
24280;BME280;12395;42.808;23.408;2022-08-06T10:57:23;94669.06;;;30.82;31.24
24280;BME280;12395;42.808;23.408;2022-08-06T10:59:49;94681.44;;;31.12;31.59
24280;BME280;12395;42.808;23.408;2022-08-06T11:04:54;94672.31;;;31.32;32.08
24280;BME280;12395;42.808;23.408;2022-08-06T11:07:56;94683.28;;;31.32;31.88
24280;BME280;12395;42.808;23.408;2022-08-06T11:15:36;94664.06;;;31.80;30.98
24280;BME280;12395;42.808;23.408;2022-08-06T11:18:04;94660.09;;;32.18;30.18
24280;BME280;12395;42.808;23.408;2022-08-06T11:20:44;94662.72;;;32.42;30.18
24280;BME280;12395;42.808;23.408;2022-08-06T11:25:43;94671.09;;;32.06;29.78
24280;BME280;12395;42.808;23.408;2022-08-06T11:28:11;94654.34;;;31.83;29.65
24280;BME280;12395;42.808;23.408;2022-08-06T11:30:54;94664.81;;;31.93;30.47
24280;BME280;12395;42.808;23.408;2022-08-06T11:35:57;94662.41;;;32.04;29.83
24280;BME280;12395;42.808;23.408;2022-08-06T11:41:24;94691.03;;;32.74;29.44
24280;BME280;12395;42.808;23.408;2022-08-06T11:54:16;94671.94;;;31.94;30.73
24280;BME280;12395;42.808;23.408;2022-08-06T12:02:01;94649.94;;;31.66;31.48
24280;BME280;12395;42.808;23.408;2022-08-06T12:12:33;94654.06;;;31.60;28.67
24280;BME280;12395;42.808;23.408;2022-08-06T12:17:30;94641.00;;;31.69;29.53
24280;BME280;12395;42.808;23.408;2022-08-06T12:19:57;94646.69;;;31.88;29.85
24280;BME280;12395;42.808;23.408;2022-08-06T12:22:26;94630.69;;;31.90;30.09
24280;BME280;12395;42.808;23.408;2022-08-06T12:24:54;94622.44;;;32.03;30.47
24280;BME280;12395;42.808;23.408;2022-08-06T12:27:22;94634.41;;;32.10;29.81
24280;BME280;12395;42.808;23.408;2022-08-06T12:29:55;94618.13;;;31.89;30.47
24280;BME280;12395;42.808;23.408;2022-08-06T12:32:30;94627.50;;;31.88;30.54
24280;BME280;12395;42.808;23.408;2022-08-06T12:35:00;94631.84;;;31.89;30.05
24280;BME280;12395;42.808;23.408;2022-08-06T12:37:42;94631.44;;;31.63;29.82
24280;BME280;12395;42.808;23.408;2022-08-06T12:40:19;94618.34;;;31.57;29.75
24280;BME280;12395;42.808;23.408;2022-08-06T12:45:30;94611.88;;;31.37;29.78
24280;BME280;12395;42.808;23.408;2022-08-06T12:48:00;94618.50;;;31.24;30.37
24280;BME280;12395;42.808;23.408;2022-08-06T12:50:27;94617.22;;;31.21;30.22
24280;BME280;12395;42.808;23.408;2022-08-06T12:53:08;94623.84;;;31.20;30.55
24280;BME280;12395;42.808;23.408;2022-08-06T12:55:49;94617.94;;;31.06;31.44
24280;BME280;12395;42.808;23.408;2022-08-06T12:58:17;94600.25;;;30.92;31.47
24280;BME280;12395;42.808;23.408;2022-08-06T13:00:46;94592.81;;;30.80;32.23
24280;BME280;12395;42.808;23.408;2022-08-06T13:03:14;94595.94;;;31.03;32.00
24280;BME280;12395;42.808;23.408;2022-08-06T13:05:41;94611.88;;;31.37;31.55
24280;BME280;12395;42.808;23.408;2022-08-06T13:08:09;94601.50;;;31.43;31.03
24280;BME280;12395;42.808;23.408;2022-08-06T13:10:34;94601.69;;;31.38;30.71
24280;BME280;12395;42.808;23.408;2022-08-06T13:13:05;94603.41;;;31.54;29.88
24280;BME280;12395;42.808;23.408;2022-08-06T13:15:32;94604.56;;;31.29;29.69
24280;BME280;12395;42.808;23.408;2022-08-06T13:18:27;94601.63;;;31.22;29.93
24280;BME280;12395;42.808;23.408;2022-08-06T13:20:54;94590.88;;;31.41;30.23
24280;BME280;12395;42.808;23.408;2022-08-06T13:23:37;94582.72;;;31.57;29.33
24280;BME280;12395;42.808;23.408;2022-08-06T13:26:21;94591.56;;;31.78;29.74
24280;BME280;12395;42.808;23.408;2022-08-06T13:29:18;94586.97;;;31.94;29.68
24280;BME280;12395;42.808;23.408;2022-08-06T13:31:45;94586.97;;;31.94;29.58
24280;BME280;12395;42.808;23.408;2022-08-06T13:34:13;94591.28;;;31.95;29.63
24280;BME280;12395;42.808;23.408;2022-08-06T13:36:41;94572.34;;;31.90;30.07
24280;BME280;12395;42.808;23.408;2022-08-06T13:39:28;94578.97;;;32.17;29.82
24280;BME280;12395;42.808;23.408;2022-08-06T13:42:09;94588.91;;;32.37;28.74
24280;BME280;12395;42.808;23.408;2022-08-06T13:44:39;94594.94;;;32.27;28.15
24280;BME280;12395;42.808;23.408;2022-08-06T13:47:05;94591.13;;;32.31;28.05
24280;BME280;12395;42.808;23.408;2022-08-06T13:49:31;94577.28;;;32.12;28.40
24280;BME280;12395;42.808;23.408;2022-08-06T13:51:57;94589.44;;;31.71;28.80
24280;BME280;12395;42.808;23.408;2022-08-06T13:54:24;94587.78;;;31.43;29.95
24280;BME280;12395;42.808;23.408;2022-08-06T13:56:52;94575.97;;;31.66;29.73
24280;BME280;12395;42.808;23.408;2022-08-06T13:59:25;94578.19;;;31.88;29.59
24280;BME280;12395;42.808;23.408;2022-08-06T14:01:51;94569.31;;;32.07;28.70
24280;BME280;12395;42.808;23.408;2022-08-06T14:04:18;94574.53;;;32.12;28.74
24280;BME280;12395;42.808;23.408;2022-08-06T14:06:47;94565.97;;;32.29;28.40
24280;BME280;12395;42.808;23.408;2022-08-06T14:09:14;94561.41;;;32.33;29.01
24280;BME280;12395;42.808;23.408;2022-08-06T14:11:39;94577.34;;;32.43;28.86
24280;BME280;12395;42.808;23.408;2022-08-06T14:14:05;94562.59;;;32.48;28.87
24280;BME280;12395;42.808;23.408;2022-08-06T14:16:30;94557.63;;;32.53;28.97